createdAt,value
2018-12-02T00:00:18.874Z,92.30
2018-12-02T00:02:54.221Z,92.40
2018-12-02T00:08:39.046Z,92.10
2018-12-02T00:11:07.293Z,92.00
2018-12-02T00:13:35.470Z,91.80
2018-12-02T00:16:03.678Z,91.30
2018-12-02T00:18:31.963Z,91.10
2018-12-02T00:21:00.183Z,91.20
2018-12-02T00:23:28.345Z,91.40
2018-12-02T00:25:56.597Z,90.80
2018-12-02T00:28:24.842Z,90.80
2018-12-02T00:30:52.992Z,90.80
2018-12-02T00:33:21.294Z,90.60
2018-12-02T00:35:49.510Z,90.60
2018-12-02T00:38:17.698Z,90.50
2018-12-02T00:40:45.897Z,90.30
2018-12-02T00:43:14.204Z,93.60
2018-12-02T00:53:07.870Z,90.80
2018-12-02T00:55:38.673Z,90.60
2018-12-02T00:58:06.882Z,90.60
2018-12-02T01:00:35.167Z,90.50
2018-12-02T01:03:03.494Z,90.30
2018-12-02T01:05:31.665Z,90.30
2018-12-02T01:07:59.833Z,90.60
2018-12-02T01:10:28.021Z,90.70
2018-12-02T01:12:57.305Z,90.60
2018-12-02T01:15:26.623Z,90.80
2018-12-02T01:17:54.824Z,90.60
2018-12-02T01:20:23.679Z,90.60
2018-12-02T01:22:51.841Z,90.80
2018-12-02T01:25:20.017Z,91.00
2018-12-02T01:27:48.253Z,91.20
2018-12-02T01:30:18.236Z,91.30
2018-12-02T01:32:46.455Z,91.40
2018-12-02T01:35:15.593Z,91.50
2018-12-02T01:37:43.805Z,91.60
2018-12-02T01:40:14.987Z,91.20
2018-12-02T01:42:43.141Z,91.50
2018-12-02T01:45:15.387Z,99.90
2018-12-02T01:47:43.562Z,95.70
2018-12-02T01:50:15.591Z,90.40
2018-12-02T01:52:45.626Z,90.00
2018-12-02T01:55:13.777Z,90.60
2018-12-02T02:00:13.917Z,90.10
2018-12-02T02:02:42.106Z,90.40
2018-12-02T02:05:10.295Z,90.30
2018-12-02T02:07:38.477Z,90.40
2018-12-02T02:10:11.607Z,90.30
2018-12-02T02:12:39.950Z,90.20
2018-12-02T02:15:09.706Z,90.30
2018-12-02T02:17:37.898Z,90.70
2018-12-02T02:20:11.879Z,90.40
2018-12-02T02:22:40.040Z,90.20
2018-12-02T02:25:10.093Z,90.40
2018-12-02T02:27:38.684Z,90.40
2018-12-02T02:30:13.637Z,90.40
2018-12-02T02:32:41.865Z,90.00
2018-12-02T02:35:10.454Z,90.10
2018-12-02T02:37:38.822Z,90.00
2018-12-02T02:40:14.228Z,90.10
2018-12-02T02:42:42.371Z,90.30
2018-12-02T02:45:11.266Z,90.20
2018-12-02T02:47:39.483Z,90.10
2018-12-02T02:50:12.808Z,90.00
2018-12-02T02:52:41.598Z,89.60
2018-12-02T02:55:09.783Z,89.20
2018-12-02T02:57:37.928Z,89.00
2018-12-02T03:00:12.581Z,89.50
2018-12-02T03:02:40.827Z,90.10
2018-12-02T03:05:09.956Z,90.20
2018-12-02T03:07:38.151Z,90.20
2018-12-02T03:10:09.516Z,89.50
2018-12-02T03:12:37.705Z,89.50
2018-12-02T03:15:07.852Z,89.50
2018-12-02T03:17:36.101Z,88.90
2018-12-02T03:20:06.037Z,89.20
2018-12-02T03:25:02.163Z,89.20
2018-12-02T03:27:30.341Z,90.10
2018-12-02T03:29:58.491Z,90.30
2018-12-02T03:32:26.649Z,90.00
2018-12-02T03:34:54.803Z,89.30
2018-12-02T03:37:22.947Z,88.90
2018-12-02T03:39:51.109Z,88.60
2018-12-02T03:42:19.303Z,89.00
2018-12-02T03:44:47.588Z,88.80
2018-12-02T03:47:15.743Z,88.80
2018-12-02T03:49:43.913Z,89.00
2018-12-02T03:52:12.069Z,89.10
2018-12-02T03:54:40.222Z,88.80
2018-12-02T03:57:08.392Z,89.20
2018-12-02T03:59:36.638Z,89.60
2018-12-02T04:02:04.912Z,89.80
2018-12-02T04:04:33.056Z,89.60
2018-12-02T04:07:01.292Z,89.90
2018-12-02T04:09:29.493Z,89.30
2018-12-02T04:11:57.786Z,90.00
2018-12-02T04:14:26.016Z,90.40
2018-12-02T04:16:54.270Z,90.10
2018-12-02T04:19:22.456Z,89.80
2018-12-02T04:21:51.524Z,99.90
2018-12-02T04:24:18.894Z,90.20
2018-12-02T04:26:47.157Z,90.40
2018-12-02T04:29:15.416Z,90.60
2018-12-02T04:31:43.685Z,90.70
2018-12-02T04:34:11.933Z,90.60
2018-12-02T04:36:40.135Z,90.70
2018-12-02T04:39:08.843Z,90.80
2018-12-02T04:41:37.094Z,90.60
2018-12-02T04:44:05.600Z,90.70
2018-12-02T04:46:33.857Z,90.50
2018-12-02T04:49:02.098Z,89.80
2018-12-02T04:51:30.405Z,90.10
2018-12-02T04:54:05.024Z,90.10
2018-12-02T04:56:33.254Z,89.00
2018-12-02T04:59:01.440Z,89.70
2018-12-02T05:01:29.649Z,89.50
2018-12-02T05:03:57.841Z,89.60
2018-12-02T05:06:26.101Z,89.80
2018-12-02T05:08:54.250Z,90.10
2018-12-02T05:11:22.528Z,90.10
2018-12-02T05:13:50.735Z,90.00
2018-12-02T05:16:18.876Z,91.10
2018-12-02T05:18:47.030Z,90.20
2018-12-02T05:21:15.169Z,90.30
2018-12-02T05:23:43.308Z,90.30
2018-12-02T05:26:11.557Z,90.40
2018-12-02T05:28:39.730Z,90.70
2018-12-02T05:31:07.909Z,90.90
2018-12-02T05:33:36.086Z,91.00
2018-12-02T05:36:04.389Z,91.00
2018-12-02T05:38:32.524Z,91.20
2018-12-02T05:41:00.669Z,91.30
2018-12-02T05:43:28.822Z,91.30
2018-12-02T05:45:57.045Z,91.50
2018-12-02T05:48:25.218Z,91.60
2018-12-02T05:50:53.362Z,91.70
2018-12-02T05:53:21.514Z,91.90
2018-12-02T05:55:49.695Z,91.80
2018-12-02T05:58:17.861Z,91.70
2018-12-02T06:00:46.075Z,91.70
2018-12-02T06:03:14.265Z,91.40
2018-12-02T06:05:42.413Z,91.30
2018-12-02T06:08:10.602Z,91.40
2018-12-02T06:10:38.749Z,91.40
2018-12-02T06:13:06.938Z,91.00
2018-12-02T06:15:35.085Z,95.90
2018-12-02T06:18:03.317Z,91.00
2018-12-02T06:22:59.421Z,91.30
2018-12-02T06:27:55.568Z,91.20
2018-12-02T06:30:26.803Z,91.70
2018-12-02T06:32:55.993Z,91.80
2018-12-02T06:35:24.149Z,91.90
2018-12-02T06:37:53.903Z,91.90
2018-12-02T06:40:23.852Z,92.10
2018-12-02T06:42:52.581Z,92.20
2018-12-02T06:45:21.066Z,92.40
2018-12-02T06:47:49.234Z,92.00
2018-12-02T06:50:20.354Z,92.40
2018-12-02T06:52:48.524Z,93.90
2018-12-02T06:55:18.637Z,93.00
2018-12-02T06:57:48.248Z,92.20
2018-12-02T07:00:25.366Z,91.70
2018-12-02T07:03:04.574Z,91.50
2018-12-02T07:05:35.400Z,91.50
2018-12-02T07:08:03.591Z,91.50
2018-12-02T07:10:31.745Z,91.60
2018-12-02T07:12:59.929Z,91.70
2018-12-02T07:15:28.083Z,92.70
2018-12-02T07:17:56.237Z,92.50
2018-12-02T07:20:24.420Z,92.00
2018-12-02T07:22:52.676Z,91.20
2018-12-02T07:25:20.822Z,91.30
2018-12-02T07:27:48.960Z,91.30
2018-12-02T07:30:17.106Z,91.40
2018-12-02T07:32:45.272Z,91.70
2018-12-02T07:35:14.136Z,91.80
2018-12-02T07:37:45.365Z,91.90
2018-12-02T07:40:21.628Z,92.00
2018-12-02T07:42:49.853Z,92.00
2018-12-02T07:45:18.009Z,92.10
2018-12-02T07:47:46.201Z,92.10
2018-12-02T07:50:14.345Z,92.10
2018-12-02T07:52:42.561Z,92.30
2018-12-02T07:55:10.695Z,92.30
2018-12-02T07:57:38.839Z,92.40
2018-12-02T08:00:12.512Z,92.50
2018-12-02T08:02:40.941Z,92.60
2018-12-02T08:05:12.309Z,92.50
2018-12-02T08:07:40.869Z,92.40
2018-12-02T08:10:11.433Z,92.10
2018-12-02T08:12:39.649Z,91.90
2018-12-02T08:15:11.441Z,92.10
2018-12-02T08:17:39.656Z,92.20
2018-12-02T08:20:11.772Z,92.20
2018-12-02T08:22:40.111Z,92.10
2018-12-02T08:25:11.489Z,92.40
2018-12-02T08:27:39.689Z,92.20
2018-12-02T08:30:12.650Z,92.40
2018-12-02T08:32:40.930Z,92.50
2018-12-02T08:35:10.021Z,92.70
2018-12-02T08:37:39.142Z,92.50
2018-12-02T08:40:10.882Z,92.70
2018-12-02T08:42:39.098Z,92.80
2018-12-02T08:45:12.577Z,93.30
2018-12-02T08:47:41.336Z,99.90
2018-12-02T08:50:11.153Z,99.90
2018-12-02T08:52:39.340Z,99.90
2018-12-02T08:55:10.187Z,93.60
2018-12-02T08:57:38.426Z,93.50
2018-12-02T09:00:10.659Z,93.40
2018-12-02T09:02:38.857Z,93.70
2018-12-02T09:05:09.515Z,93.80
2018-12-02T09:07:37.717Z,93.80
2018-12-02T09:10:10.686Z,93.90
2018-12-02T09:12:38.940Z,93.90
2018-12-02T09:15:08.685Z,93.60
2018-12-02T09:17:36.995Z,93.90
2018-12-02T09:20:10.983Z,94.00
2018-12-02T09:22:39.674Z,94.10
2018-12-02T09:25:08.867Z,94.10
2018-12-02T09:27:37.204Z,94.20
2018-12-02T09:30:12.347Z,94.30
2018-12-02T09:32:40.558Z,94.40
2018-12-02T09:35:09.625Z,94.50
2018-12-02T09:37:37.868Z,94.50
2018-12-02T09:40:09.945Z,94.60
2018-12-02T09:42:38.382Z,94.80
2018-12-02T09:45:10.609Z,94.90
2018-12-02T09:47:38.849Z,95.10
2018-12-02T09:50:14.657Z,95.00
2018-12-02T09:52:42.864Z,94.80
2018-12-02T09:55:16.792Z,94.60
2018-12-02T09:57:45.086Z,94.90
2018-12-02T10:00:15.929Z,95.00
2018-12-02T10:02:44.129Z,94.80
2018-12-02T10:05:12.336Z,94.90
2018-12-02T10:07:40.647Z,94.90
2018-12-02T10:10:13.332Z,95.10
2018-12-02T10:12:42.909Z,98.30
2018-12-02T10:15:12.621Z,95.30
2018-12-02T10:17:40.884Z,95.40
2018-12-02T10:20:15.449Z,95.50
2018-12-02T10:22:44.508Z,95.50
2018-12-02T10:25:13.917Z,95.30
2018-12-02T10:27:42.076Z,95.30
2018-12-02T10:30:12.670Z,94.80
2018-12-02T10:32:40.841Z,95.00
2018-12-02T10:35:08.998Z,94.80
2018-12-02T10:37:37.198Z,94.90
2018-12-02T10:40:08.997Z,94.80
2018-12-02T10:42:37.214Z,94.80
2018-12-02T10:45:06.826Z,94.80
2018-12-02T10:47:34.974Z,94.90
2018-12-02T10:50:03.171Z,95.00
2018-12-02T10:52:31.312Z,95.10
2018-12-02T10:54:59.488Z,95.20
2018-12-02T10:57:27.685Z,95.40
2018-12-02T10:59:55.852Z,95.60
2018-12-02T11:02:24.029Z,95.50
2018-12-02T11:04:52.208Z,95.80
2018-12-02T11:07:20.377Z,95.90
2018-12-02T11:09:48.553Z,96.80
2018-12-02T11:12:16.718Z,95.60
2018-12-02T11:14:44.908Z,97.00
2018-12-02T11:17:13.794Z,98.50
2018-12-02T11:24:37.859Z,95.90
2018-12-02T11:27:07.434Z,95.60
2018-12-02T11:29:35.593Z,95.50
2018-12-02T11:32:03.744Z,95.30
2018-12-02T11:34:31.941Z,95.10
2018-12-02T11:37:00.697Z,95.20
2018-12-02T11:39:28.890Z,95.60
2018-12-02T11:41:57.032Z,95.20
2018-12-02T11:44:25.194Z,94.80
2018-12-02T11:46:53.379Z,94.40
2018-12-02T11:49:21.536Z,94.20
2018-12-02T11:51:49.790Z,93.90
2018-12-02T11:54:17.971Z,93.90
2018-12-02T11:56:46.136Z,92.80
2018-12-02T11:59:14.318Z,93.20
2018-12-02T12:01:42.612Z,92.80
2018-12-02T12:04:10.845Z,93.30
2018-12-02T12:06:39.002Z,92.90
2018-12-02T12:09:08.478Z,93.10
2018-12-02T12:11:36.693Z,93.10
2018-12-02T12:14:04.954Z,93.00
2018-12-02T12:16:33.198Z,93.40
2018-12-02T12:19:01.393Z,99.90
2018-12-02T12:23:57.549Z,93.70
2018-12-02T12:26:25.778Z,94.20
2018-12-02T12:28:53.989Z,94.30
2018-12-02T12:31:22.193Z,94.20
2018-12-02T12:33:50.434Z,94.60
2018-12-02T12:36:18.625Z,94.60
2018-12-02T12:38:46.953Z,94.80
2018-12-02T12:41:15.388Z,95.00
2018-12-02T12:43:44.868Z,95.20
2018-12-02T12:46:13.180Z,95.10
2018-12-02T12:48:41.434Z,95.80
2018-12-02T12:51:09.628Z,96.00
2018-12-02T12:53:37.845Z,96.10
2018-12-02T12:56:06.091Z,96.00
2018-12-02T12:58:34.322Z,96.30
2018-12-02T13:01:02.683Z,96.40
2018-12-02T13:03:30.889Z,96.20
2018-12-02T13:05:59.147Z,95.50
2018-12-02T13:08:27.370Z,94.70
2018-12-02T13:10:55.589Z,99.90
2018-12-02T13:13:23.877Z,93.20
2018-12-02T13:15:52.127Z,92.40
2018-12-02T13:18:20.391Z,91.90
2018-12-02T13:20:52.586Z,99.90
2018-12-02T13:23:20.907Z,92.40
2018-12-02T13:25:49.171Z,92.70
2018-12-02T13:28:17.404Z,92.70
2018-12-02T13:30:45.645Z,92.20
2018-12-02T13:33:13.907Z,92.10
2018-12-02T13:35:42.129Z,92.30
2018-12-02T13:38:10.358Z,92.40
2018-12-02T13:40:39.741Z,92.20
2018-12-02T13:43:12.874Z,91.10
2018-12-02T13:45:41.131Z,91.50
2018-12-02T13:48:09.329Z,91.00
2018-12-02T13:50:37.562Z,90.50
2018-12-02T13:53:06.473Z,90.30
2018-12-02T13:55:34.768Z,90.50
2018-12-02T13:58:02.968Z,90.10
2018-12-02T14:00:31.484Z,90.20
2018-12-02T14:03:06.824Z,90.30
2018-12-02T14:05:36.104Z,90.20
2018-12-02T14:08:04.339Z,90.30
2018-12-02T14:10:32.636Z,89.60
2018-12-02T14:13:02.567Z,89.30
2018-12-02T14:16:35.356Z,90.00
2018-12-02T14:19:07.605Z,90.10
2018-12-02T14:21:35.803Z,90.20
2018-12-02T14:24:05.633Z,90.50
2018-12-02T14:26:33.862Z,90.40
2018-12-02T14:29:06.674Z,89.40
2018-12-02T14:31:36.359Z,89.20
2018-12-02T14:34:05.285Z,88.90
2018-12-02T14:39:01.486Z,88.30
2018-12-02T14:41:29.665Z,88.80
2018-12-02T14:43:57.928Z,88.10
2018-12-02T14:46:26.171Z,88.00
2018-12-02T14:48:54.337Z,87.90
2018-12-02T14:51:22.550Z,88.10
2018-12-02T14:53:50.793Z,88.70
2018-12-02T14:56:18.965Z,88.90
2018-12-02T14:58:47.292Z,89.20
2018-12-02T15:01:15.491Z,88.90
2018-12-02T15:03:43.681Z,89.50
2018-12-02T15:06:11.862Z,89.60
2018-12-02T15:08:40.043Z,90.20
2018-12-02T15:11:08.316Z,90.30
2018-12-02T15:13:36.509Z,90.10
2018-12-02T15:16:05.013Z,90.30
2018-12-02T15:18:33.309Z,90.30
2018-12-02T15:21:08.446Z,90.30
2018-12-02T15:23:36.670Z,90.60
2018-12-02T15:26:05.037Z,90.80
2018-12-02T15:28:33.280Z,91.00
2018-12-02T15:31:01.458Z,91.40
2018-12-02T15:33:29.595Z,91.20
2018-12-02T15:35:57.794Z,99.90
2018-12-02T15:38:26.048Z,99.90
2018-12-02T15:45:56.725Z,92.10
2018-12-02T15:48:24.941Z,92.50
2018-12-02T15:50:53.141Z,92.40
2018-12-02T15:53:21.346Z,92.50
2018-12-02T15:55:49.553Z,92.70
2018-12-02T15:58:17.867Z,92.90
2018-12-02T16:00:46.814Z,93.00
2018-12-02T16:03:15.084Z,92.90
2018-12-02T16:05:43.317Z,92.60
2018-12-02T16:08:11.566Z,92.50
2018-12-02T16:10:39.868Z,92.60
2018-12-02T16:13:09.687Z,92.90
2018-12-02T16:15:37.996Z,93.30
2018-12-02T16:18:08.983Z,93.50
2018-12-02T16:20:48.079Z,93.70
2018-12-02T16:23:20.758Z,93.90
2018-12-02T16:25:48.997Z,94.20
2018-12-02T16:28:17.238Z,94.00
2018-12-02T16:30:45.527Z,93.70
2018-12-02T16:33:13.868Z,93.70
2018-12-02T16:35:42.110Z,93.70
2018-12-02T16:38:11.834Z,93.80
2018-12-02T16:40:40.088Z,94.00
2018-12-02T16:43:09.420Z,94.30
2018-12-02T16:45:39.804Z,94.70
2018-12-02T16:50:40.170Z,95.00
2018-12-02T16:53:22.629Z,99.80
2018-12-02T16:55:58.394Z,94.90
2018-12-02T17:01:02.456Z,94.80
2018-12-02T17:03:30.665Z,95.00
2018-12-02T17:05:58.918Z,95.00
2018-12-02T17:08:27.101Z,95.00
2018-12-02T17:10:55.322Z,94.60
2018-12-02T17:13:23.524Z,94.60
2018-12-02T17:15:51.742Z,95.10
2018-12-02T17:18:19.899Z,95.20
2018-12-02T17:20:48.079Z,96.00
2018-12-02T17:23:16.270Z,96.30
2018-12-02T17:25:44.524Z,96.40
2018-12-02T17:28:12.694Z,96.40
2018-12-02T17:30:44.098Z,96.50
2018-12-02T17:33:12.369Z,96.70
2018-12-02T17:35:40.541Z,96.20
2018-12-02T17:38:08.773Z,96.10
2018-12-02T17:40:36.986Z,96.10
2018-12-02T17:43:06.818Z,96.40
2018-12-02T17:45:35.055Z,96.40
2018-12-02T17:48:03.248Z,96.00
2018-12-02T17:50:31.482Z,95.50
2018-12-02T17:55:27.594Z,96.30
2018-12-02T18:00:25.713Z,96.50
2018-12-02T18:02:55.307Z,96.80
2018-12-02T18:05:25.317Z,96.70
2018-12-02T18:07:54.593Z,96.80
2018-12-02T18:10:22.793Z,96.80
2018-12-02T18:12:51.040Z,97.10
2018-12-02T18:15:19.245Z,97.10
2018-12-02T18:17:47.446Z,97.00
2018-12-02T18:20:16.754Z,96.40
2018-12-02T18:22:45.171Z,97.10
2018-12-02T18:25:15.515Z,97.30
2018-12-02T18:27:44.858Z,97.30
2018-12-02T18:30:13.601Z,97.20
2018-12-02T18:32:41.802Z,96.80
2018-12-02T18:35:18.510Z,96.10
2018-12-02T18:37:46.734Z,96.40
2018-12-02T18:40:14.980Z,96.50
2018-12-02T18:42:43.176Z,96.30
2018-12-02T18:45:11.382Z,96.60
2018-12-02T18:47:39.582Z,96.90
2018-12-02T18:50:10.573Z,97.00
2018-12-02T18:52:39.081Z,96.70
2018-12-02T18:55:09.547Z,96.80
2018-12-02T18:57:37.700Z,96.70
2018-12-02T19:00:14.779Z,99.90
2018-12-02T19:02:43.033Z,96.70
2018-12-02T19:05:11.185Z,99.90
2018-12-02T19:07:39.347Z,96.90
2018-12-02T19:10:10.683Z,99.90
2018-12-02T19:12:38.897Z,96.90
2018-12-02T19:15:10.914Z,97.10
2018-12-02T19:17:39.074Z,97.00
2018-12-02T19:20:12.540Z,97.30
2018-12-02T19:22:40.702Z,97.50
2018-12-02T19:25:10.955Z,97.60
2018-12-02T19:27:39.208Z,97.60
2018-12-02T19:30:12.572Z,97.50
2018-12-02T19:32:40.722Z,97.80
2018-12-02T19:35:26.446Z,98.00
2018-12-02T19:37:57.617Z,98.00
2018-12-02T19:40:25.882Z,97.90
2018-12-02T19:42:54.042Z,97.80
2018-12-02T19:45:22.222Z,97.80
2018-12-02T19:47:50.410Z,97.90
2018-12-02T19:50:19.481Z,97.90
2018-12-02T19:52:49.642Z,97.50
2018-12-02T19:55:17.784Z,97.20
2018-12-02T19:57:47.349Z,97.50
2018-12-02T20:00:25.537Z,97.60
2018-12-02T20:02:54.352Z,97.40
2018-12-02T20:05:22.498Z,97.50
2018-12-02T20:07:53.146Z,97.30
2018-12-02T20:10:23.160Z,97.40
2018-12-02T20:12:51.394Z,97.60
2018-12-02T20:15:19.574Z,97.50
2018-12-02T20:17:47.833Z,97.80
2018-12-02T20:20:22.546Z,97.80
2018-12-02T20:22:50.993Z,99.40
2018-12-02T20:25:20.197Z,97.40
2018-12-02T20:27:48.982Z,97.40
2018-12-02T20:30:18.373Z,97.40
2018-12-02T20:32:46.526Z,97.30
2018-12-02T20:35:14.803Z,97.60
2018-12-02T20:37:42.957Z,97.60
2018-12-02T20:40:14.358Z,97.10
2018-12-02T20:42:42.842Z,97.40
2018-12-02T20:45:12.344Z,97.50
2018-12-02T20:47:40.569Z,97.40
2018-12-02T20:50:13.702Z,97.40
2018-12-02T20:52:41.891Z,97.50
2018-12-02T20:55:11.381Z,97.80
2018-12-02T20:57:39.581Z,98.00
2018-12-02T21:00:11.648Z,98.10
2018-12-02T21:02:39.916Z,98.10
2018-12-02T21:05:11.010Z,98.50
2018-12-02T21:07:39.278Z,97.90
2018-12-02T21:10:10.378Z,98.10
2018-12-02T21:12:38.545Z,98.80
2018-12-02T21:15:11.235Z,99.40
2018-12-02T21:17:39.441Z,99.60
2018-12-02T21:20:10.929Z,99.70
2018-12-02T21:22:39.223Z,99.50
2018-12-02T21:25:11.921Z,99.50
2018-12-02T21:27:40.094Z,99.40
2018-12-02T21:30:19.705Z,99.20
2018-12-02T21:32:47.860Z,98.90
2018-12-02T21:35:16.038Z,99.00
2018-12-02T21:37:44.842Z,98.90
2018-12-02T21:40:14.519Z,98.80
2018-12-02T21:42:42.766Z,98.00
2018-12-02T21:45:14.996Z,97.90
2018-12-02T21:47:44.902Z,99.90
2018-12-02T21:50:16.693Z,97.70
2018-12-02T21:52:44.833Z,98.00
2018-12-02T21:55:13.049Z,98.30
2018-12-02T22:02:42.706Z,98.30
2018-12-02T22:05:10.883Z,98.60
2018-12-02T22:07:39.086Z,98.50
2018-12-02T22:10:10.301Z,98.40
2018-12-02T22:12:38.579Z,97.70
2018-12-02T22:15:07.894Z,98.00
2018-12-02T22:17:36.213Z,98.10
2018-12-02T22:20:09.110Z,97.90
2018-12-02T22:22:37.409Z,97.70
2018-12-02T22:25:07.829Z,97.90
2018-12-02T22:27:36.132Z,98.20
2018-12-02T22:30:05.306Z,98.00
2018-12-02T22:32:33.548Z,97.80
2018-12-02T22:35:01.866Z,98.10
2018-12-02T22:37:30.197Z,98.20
2018-12-02T22:39:58.442Z,97.50
2018-12-02T22:42:26.793Z,97.70
2018-12-02T22:44:55.120Z,97.80
2018-12-02T22:47:23.748Z,97.80
2018-12-02T22:49:52.020Z,97.70
2018-12-02T22:52:20.305Z,97.50
2018-12-02T22:54:48.785Z,99.90
2018-12-02T22:57:17.095Z,97.40
2018-12-02T22:59:45.385Z,97.30
2018-12-02T23:02:20.950Z,99.90
2018-12-02T23:04:49.284Z,97.60
2018-12-02T23:07:17.711Z,97.70
2018-12-02T23:09:46.071Z,98.10
2018-12-02T23:12:14.388Z,98.30
2018-12-02T23:14:42.721Z,98.10
2018-12-02T23:17:18.556Z,97.90
2018-12-02T23:19:46.804Z,98.20
2018-12-02T23:22:15.075Z,98.20
2018-12-02T23:24:43.396Z,98.00
2018-12-02T23:27:11.683Z,98.20
2018-12-02T23:29:40.176Z,98.40
2018-12-02T23:32:08.518Z,98.30
2018-12-02T23:34:36.954Z,98.60
2018-12-02T23:37:05.412Z,99.40
2018-12-02T23:39:33.746Z,98.90
2018-12-02T23:42:01.999Z,99.20
2018-12-02T23:44:30.242Z,98.90
2018-12-02T23:46:58.600Z,98.60
2018-12-02T23:49:27.086Z,98.50
2018-12-02T23:51:55.428Z,98.60
2018-12-02T23:54:23.702Z,98.90
2018-12-02T23:56:51.954Z,98.80
2018-12-02T23:59:20.230Z,98.80
